sensor_id;sensor_type;location;lat;lon;timestamp;pressure;altitude;pressure_sealevel;temperature;humidity
66196;BME280;53000;45.182;5.736;2023-09-30T00:01:49;99932.91;;;24.81;49.20
66196;BME280;53000;45.182;5.736;2023-09-30T00:04:17;99931.44;;;24.78;48.83
66196;BME280;53000;45.182;5.736;2023-09-30T00:06:43;99940.28;;;24.75;49.32
66196;BME280;53000;45.182;5.736;2023-09-30T00:09:08;99940.75;;;24.72;49.32
66196;BME280;53000;45.182;5.736;2023-09-30T00:11:33;99947.38;;;24.71;48.83
66196;BME280;53000;45.182;5.736;2023-09-30T00:13:59;99947.16;;;24.73;49.41
66196;BME280;53000;45.182;5.736;2023-09-30T00:16:25;99935.47;;;24.71;49.32
66196;BME280;53000;45.182;5.736;2023-09-30T00:18:50;99931.53;;;24.66;49.20
66196;BME280;53000;45.182;5.736;2023-09-30T00:21:16;99935.63;;;24.64;49.41
66196;BME280;53000;45.182;5.736;2023-09-30T00:23:41;99928.03;;;24.59;49.74
66196;BME280;53000;45.182;5.736;2023-09-30T00:26:06;99928.19;;;24.53;50.37
66196;BME280;53000;45.182;5.736;2023-09-30T00:28:32;99925.53;;;24.46;49.73
66196;BME280;53000;45.182;5.736;2023-09-30T00:30:57;99933.22;;;24.44;49.37
66196;BME280;53000;45.182;5.736;2023-09-30T00:33:23;99923.50;;;24.41;49.39
66196;BME280;53000;45.182;5.736;2023-09-30T00:35:48;99923.50;;;24.41;48.78
66196;BME280;53000;45.182;5.736;2023-09-30T00:38:13;99915.78;;;24.43;48.38
66196;BME280;53000;45.182;5.736;2023-09-30T00:40:46;99918.91;;;24.47;48.32
66196;BME280;53000;45.182;5.736;2023-09-30T00:43:18;99916.50;;;24.51;48.30
66196;BME280;53000;45.182;5.736;2023-09-30T00:45:44;99916.63;;;24.56;48.00
66196;BME280;53000;45.182;5.736;2023-09-30T00:48:09;99918.91;;;24.59;47.94
66196;BME280;53000;45.182;5.736;2023-09-30T00:50:35;99920.09;;;24.63;47.90
66196;BME280;53000;45.182;5.736;2023-09-30T00:53:00;99931.75;;;24.65;47.73
66196;BME280;53000;45.182;5.736;2023-09-30T00:55:26;99930.09;;;24.64;48.08
66196;BME280;53000;45.182;5.736;2023-09-30T00:57:51;99920.09;;;24.63;48.38
66196;BME280;53000;45.182;5.736;2023-09-30T01:00:17;99930.09;;;24.64;48.54
66196;BME280;53000;45.182;5.736;2023-09-30T01:02:43;99924.44;;;24.59;48.82
66196;BME280;53000;45.182;5.736;2023-09-30T01:05:09;99923.75;;;24.52;49.53
66196;BME280;53000;45.182;5.736;2023-09-30T01:07:34;99925.44;;;24.41;49.05
66196;BME280;53000;45.182;5.736;2023-09-30T01:10:01;99926.63;;;24.33;49.82
66196;BME280;53000;45.182;5.736;2023-09-30T01:12:26;99932.91;;;24.28;49.34
66196;BME280;53000;45.182;5.736;2023-09-30T01:14:57;99926.78;;;24.26;49.14
66196;BME280;53000;45.182;5.736;2023-09-30T01:17:23;99926.41;;;24.23;49.31
66196;BME280;53000;45.182;5.736;2023-09-30T01:19:49;99919.22;;;24.22;49.22
66196;BME280;53000;45.182;5.736;2023-09-30T01:22:15;99934.16;;;24.21;49.60
66196;BME280;53000;45.182;5.736;2023-09-30T01:24:42;99934.63;;;24.18;50.07
66196;BME280;53000;45.182;5.736;2023-09-30T01:27:08;99934.00;;;24.16;49.22
66196;BME280;53000;45.182;5.736;2023-09-30T01:29:34;99939.91;;;24.19;49.57
66196;BME280;53000;45.182;5.736;2023-09-30T01:32:00;99928.84;;;24.19;49.25
66196;BME280;53000;45.182;5.736;2023-09-30T01:34:26;99932.81;;;24.23;49.09
66196;BME280;53000;45.182;5.736;2023-09-30T01:36:52;99932.06;;;24.28;48.67
66196;BME280;53000;45.182;5.736;2023-09-30T01:39:18;99940.75;;;24.32;49.06
66196;BME280;53000;45.182;5.736;2023-09-30T01:41:44;99934.09;;;24.33;49.36
66196;BME280;53000;45.182;5.736;2023-09-30T01:44:09;99936.63;;;24.34;49.09
66196;BME280;53000;45.182;5.736;2023-09-30T01:46:34;99943.50;;;24.32;49.48
66196;BME280;53000;45.182;5.736;2023-09-30T01:49:00;99935.44;;;24.30;49.18
66196;BME280;53000;45.182;5.736;2023-09-30T01:51:25;99925.72;;;24.27;49.11
66196;BME280;53000;45.182;5.736;2023-09-30T01:53:50;99930.75;;;24.31;48.85
66196;BME280;53000;45.182;5.736;2023-09-30T01:56:16;99928.81;;;24.31;49.01
66196;BME280;53000;45.182;5.736;2023-09-30T01:58:41;99927.13;;;24.30;49.12
66196;BME280;53000;45.182;5.736;2023-09-30T02:01:06;99922.06;;;24.27;48.79
66196;BME280;53000;45.182;5.736;2023-09-30T02:03:32;99926.53;;;24.28;49.03
66196;BME280;53000;45.182;5.736;2023-09-30T02:05:58;99943.38;;;24.26;49.18
66196;BME280;53000;45.182;5.736;2023-09-30T02:08:24;99941.44;;;24.27;49.13
66196;BME280;53000;45.182;5.736;2023-09-30T02:10:49;99931.25;;;24.27;49.04
66196;BME280;53000;45.182;5.736;2023-09-30T02:13:16;99925.59;;;24.22;49.17
66196;BME280;53000;45.182;5.736;2023-09-30T02:15:41;99936.53;;;24.17;49.50
66196;BME280;53000;45.182;5.736;2023-09-30T02:18:06;99922.13;;;24.15;48.85
66196;BME280;53000;45.182;5.736;2023-09-30T02:20:32;99935.13;;;24.15;49.35
66196;BME280;53000;45.182;5.736;2023-09-30T02:22:57;99929.59;;;24.15;49.04
66196;BME280;53000;45.182;5.736;2023-09-30T02:25:24;99943.63;;;24.13;49.38
66196;BME280;53000;45.182;5.736;2023-09-30T02:27:50;99936.69;;;24.11;49.48
66196;BME280;53000;45.182;5.736;2023-09-30T02:30:15;99931.28;;;24.04;49.89
66196;BME280;53000;45.182;5.736;2023-09-30T02:32:41;99931.97;;;23.99;49.93
66196;BME280;53000;45.182;5.736;2023-09-30T02:35:07;99938.59;;;23.86;51.43
66196;BME280;53000;45.182;5.736;2023-09-30T02:37:33;99935.44;;;23.71;50.84
66196;BME280;53000;45.182;5.736;2023-09-30T02:40:05;99929.09;;;23.59;50.82
66196;BME280;53000;45.182;5.736;2023-09-30T02:42:35;99938.56;;;23.51;52.03
66196;BME280;53000;45.182;5.736;2023-09-30T02:45:02;99942.50;;;23.43;52.16
66196;BME280;53000;45.182;5.736;2023-09-30T02:47:27;99932.06;;;23.34;52.65
66196;BME280;53000;45.182;5.736;2023-09-30T02:49:54;99927.47;;;23.27;51.79
66196;BME280;53000;45.182;5.736;2023-09-30T02:52:19;99925.88;;;23.20;52.18
66196;BME280;53000;45.182;5.736;2023-09-30T02:54:46;99931.91;;;23.17;51.94
66196;BME280;53000;45.182;5.736;2023-09-30T02:57:11;99925.75;;;23.15;52.28
66196;BME280;53000;45.182;5.736;2023-09-30T02:59:36;99934.53;;;23.12;52.69
66196;BME280;53000;45.182;5.736;2023-09-30T03:02:02;99929.47;;;23.09;52.06
66196;BME280;53000;45.182;5.736;2023-09-30T03:04:28;99924.66;;;23.04;52.46
66196;BME280;53000;45.182;5.736;2023-09-30T03:06:53;99922.56;;;22.99;52.87
66196;BME280;53000;45.182;5.736;2023-09-30T03:09:21;99923.03;;;22.96;52.72
66196;BME280;53000;45.182;5.736;2023-09-30T03:11:47;99930.69;;;22.94;52.24
66196;BME280;53000;45.182;5.736;2023-09-30T03:14:12;99930.34;;;22.91;52.22
66196;BME280;53000;45.182;5.736;2023-09-30T03:16:39;99931.41;;;22.90;52.91
66196;BME280;53000;45.182;5.736;2023-09-30T03:19:05;99936.09;;;22.89;52.46
66196;BME280;53000;45.182;5.736;2023-09-30T03:21:34;99934.16;;;22.90;52.79
66196;BME280;53000;45.182;5.736;2023-09-30T03:24:03;99943.53;;;22.89;51.56
66196;BME280;53000;45.182;5.736;2023-09-30T03:26:29;99944.25;;;22.84;52.14
66196;BME280;53000;45.182;5.736;2023-09-30T03:28:55;99943.47;;;22.77;52.35
66196;BME280;53000;45.182;5.736;2023-09-30T03:31:21;99944.41;;;22.71;52.77
66196;BME280;53000;45.182;5.736;2023-09-30T03:33:47;99946.81;;;22.67;52.95
66196;BME280;53000;45.182;5.736;2023-09-30T03:36:13;99940.19;;;22.68;53.03
66196;BME280;53000;45.182;5.736;2023-09-30T03:38:40;99935.78;;;22.67;53.13
66196;BME280;53000;45.182;5.736;2023-09-30T03:41:07;99942.00;;;22.62;53.64
66196;BME280;53000;45.182;5.736;2023-09-30T03:43:34;99928.25;;;22.56;53.59
66196;BME280;53000;45.182;5.736;2023-09-30T03:46:00;99935.34;;;22.52;52.90
66196;BME280;53000;45.182;5.736;2023-09-30T03:48:26;99933.03;;;22.49;53.56
66196;BME280;53000;45.182;5.736;2023-09-30T03:50:51;99947.22;;;22.52;53.97
66196;BME280;53000;45.182;5.736;2023-09-30T03:53:17;99950.41;;;22.49;54.06
66196;BME280;53000;45.182;5.736;2023-09-30T03:55:43;99956.41;;;22.46;53.88
66196;BME280;53000;45.182;5.736;2023-09-30T03:58:08;99964.91;;;22.44;53.47
66196;BME280;53000;45.182;5.736;2023-09-30T04:00:33;99964.53;;;22.41;54.28
66196;BME280;53000;45.182;5.736;2023-09-30T04:03:00;99973.25;;;22.38;54.06
66196;BME280;53000;45.182;5.736;2023-09-30T04:05:26;99967.75;;;22.38;54.21
66196;BME280;53000;45.182;5.736;2023-09-30T04:07:58;99965.81;;;22.38;53.66
66196;BME280;53000;45.182;5.736;2023-09-30T04:10:23;99958.63;;;22.37;53.19
66196;BME280;53000;45.182;5.736;2023-09-30T04:12:49;99951.28;;;22.31;53.81
66196;BME280;53000;45.182;5.736;2023-09-30T04:15:14;99959.56;;;22.31;53.85
66196;BME280;53000;45.182;5.736;2023-09-30T04:17:40;99958.72;;;22.31;53.89
66196;BME280;53000;45.182;5.736;2023-09-30T04:20:06;99960.03;;;22.28;54.23
66196;BME280;53000;45.182;5.736;2023-09-30T04:22:41;99961.56;;;22.24;54.30
66196;BME280;53000;45.182;5.736;2023-09-30T04:25:07;99958.66;;;22.12;54.82
66196;BME280;53000;45.182;5.736;2023-09-30T04:27:36;99952.75;;;22.09;54.51
66196;BME280;53000;45.182;5.736;2023-09-30T04:30:02;99965.50;;;22.10;54.59
66196;BME280;53000;45.182;5.736;2023-09-30T04:32:34;99966.53;;;22.09;54.82
66196;BME280;53000;45.182;5.736;2023-09-30T04:34:59;99968.94;;;22.05;55.63
66196;BME280;53000;45.182;5.736;2023-09-30T04:37:25;99962.81;;;22.03;55.64
66196;BME280;53000;45.182;5.736;2023-09-30T04:39:50;99958.97;;;22.04;55.04
66196;BME280;53000;45.182;5.736;2023-09-30T04:42:15;99955.38;;;22.03;55.18
66196;BME280;53000;45.182;5.736;2023-09-30T04:44:42;99966.63;;;22.02;55.18
66196;BME280;53000;45.182;5.736;2023-09-30T04:47:08;99960.47;;;22.00;55.25
66196;BME280;53000;45.182;5.736;2023-09-30T04:49:34;99957.50;;;22.01;54.88
66196;BME280;53000;45.182;5.736;2023-09-30T04:52:00;99958.59;;;22.00;54.59
66196;BME280;53000;45.182;5.736;2023-09-30T04:54:26;99949.72;;;21.98;54.84
66196;BME280;53000;45.182;5.736;2023-09-30T04:56:51;99957.72;;;22.00;55.72
66196;BME280;53000;45.182;5.736;2023-09-30T04:59:16;99957.13;;;21.98;54.72
66196;BME280;53000;45.182;5.736;2023-09-30T05:01:42;99956.50;;;21.96;55.46
66196;BME280;53000;45.182;5.736;2023-09-30T05:04:07;99967.53;;;21.96;55.74
66196;BME280;53000;45.182;5.736;2023-09-30T05:06:32;99971.38;;;21.95;55.47
66196;BME280;53000;45.182;5.736;2023-09-30T05:08:58;99960.94;;;21.97;56.20
66196;BME280;53000;45.182;5.736;2023-09-30T05:11:24;99961.78;;;21.97;55.77
66196;BME280;53000;45.182;5.736;2023-09-30T05:13:49;99963.72;;;21.97;56.14
66196;BME280;53000;45.182;5.736;2023-09-30T05:16:15;99971.38;;;21.95;56.07
66196;BME280;53000;45.182;5.736;2023-09-30T05:18:41;99976.03;;;21.94;56.26
66196;BME280;53000;45.182;5.736;2023-09-30T05:21:06;99972.19;;;21.95;56.86
66196;BME280;53000;45.182;5.736;2023-09-30T05:23:32;99975.22;;;21.94;56.40
66196;BME280;53000;45.182;5.736;2023-09-30T05:25:57;99986.22;;;21.94;55.59
66196;BME280;53000;45.182;5.736;2023-09-30T05:28:23;99980.94;;;21.92;56.02
66196;BME280;53000;45.182;5.736;2023-09-30T05:30:48;99976.47;;;21.91;56.83
66196;BME280;53000;45.182;5.736;2023-09-30T05:33:15;99996.00;;;21.90;56.92
66196;BME280;53000;45.182;5.736;2023-09-30T05:35:42;99993.25;;;21.90;56.59
66196;BME280;53000;45.182;5.736;2023-09-30T05:38:08;99996.22;;;21.88;57.16
66196;BME280;53000;45.182;5.736;2023-09-30T05:40:33;99992.41;;;21.89;56.44
66196;BME280;53000;45.182;5.736;2023-09-30T05:42:59;100000.44;;;21.91;56.14
66196;BME280;53000;45.182;5.736;2023-09-30T05:45:26;100004.03;;;21.91;56.34
66196;BME280;53000;45.182;5.736;2023-09-30T05:47:52;100008.50;;;21.92;56.80
66196;BME280;53000;45.182;5.736;2023-09-30T05:50:19;100012.72;;;21.95;56.47
66196;BME280;53000;45.182;5.736;2023-09-30T05:52:50;100013.78;;;21.94;55.78
66196;BME280;53000;45.182;5.736;2023-09-30T05:55:16;100012.31;;;21.91;56.25
66196;BME280;53000;45.182;5.736;2023-09-30T05:57:45;100018.44;;;21.93;56.56
66196;BME280;53000;45.182;5.736;2023-09-30T06:00:12;100023.72;;;21.95;56.15
66196;BME280;53000;45.182;5.736;2023-09-30T06:02:40;100020.22;;;21.88;55.94
66196;BME280;53000;45.182;5.736;2023-09-30T06:05:06;100018.34;;;21.81;56.76
66196;BME280;53000;45.182;5.736;2023-09-30T06:07:31;100023.19;;;21.86;57.25
66196;BME280;53000;45.182;5.736;2023-09-30T06:09:58;100017.81;;;21.91;56.51
66196;BME280;53000;45.182;5.736;2023-09-30T06:12:24;100020.97;;;21.95;56.56
66196;BME280;53000;45.182;5.736;2023-09-30T06:14:49;100019.88;;;21.96;56.72
66196;BME280;53000;45.182;5.736;2023-09-30T06:17:16;100024.56;;;21.95;56.78
66196;BME280;53000;45.182;5.736;2023-09-30T06:19:41;100025.19;;;21.97;56.67
66196;BME280;53000;45.182;5.736;2023-09-30T06:22:07;100020.97;;;21.95;56.75
66196;BME280;53000;45.182;5.736;2023-09-30T06:24:32;100011.47;;;21.91;56.26
66196;BME280;53000;45.182;5.736;2023-09-30T06:26:58;100018.72;;;21.85;57.13
66196;BME280;53000;45.182;5.736;2023-09-30T06:29:23;100029.53;;;21.87;57.01
66196;BME280;53000;45.182;5.736;2023-09-30T06:31:48;100034.59;;;21.90;57.31
66196;BME280;53000;45.182;5.736;2023-09-30T06:34:14;100031.38;;;21.93;57.33
66196;BME280;53000;45.182;5.736;2023-09-30T06:36:39;100039.19;;;21.96;57.29
66196;BME280;53000;45.182;5.736;2023-09-30T06:39:05;100032.41;;;21.98;56.60
66196;BME280;53000;45.182;5.736;2023-09-30T06:41:31;100033.84;;;22.01;56.73
66196;BME280;53000;45.182;5.736;2023-09-30T06:43:56;100025.81;;;21.99;56.89
66196;BME280;53000;45.182;5.736;2023-09-30T06:46:22;100037.91;;;21.98;56.15
66196;BME280;53000;45.182;5.736;2023-09-30T06:48:49;100032.63;;;21.97;56.55
66196;BME280;53000;45.182;5.736;2023-09-30T06:51:16;100046.41;;;21.97;56.75
66196;BME280;53000;45.182;5.736;2023-09-30T06:53:42;100042.34;;;21.99;56.58
66196;BME280;53000;45.182;5.736;2023-09-30T06:56:07;100037.50;;;21.95;56.63
66196;BME280;53000;45.182;5.736;2023-09-30T06:58:33;100034.53;;;21.96;56.52
66196;BME280;53000;45.182;5.736;2023-09-30T07:00:58;100042.13;;;22.01;56.46
66196;BME280;53000;45.182;5.736;2023-09-30T07:03:24;100046.13;;;22.05;56.38
66196;BME280;53000;45.182;5.736;2023-09-30T07:05:50;100049.88;;;22.11;56.27
66196;BME280;53000;45.182;5.736;2023-09-30T07:08:18;100050.88;;;22.16;55.80
66196;BME280;53000;45.182;5.736;2023-09-30T07:10:44;100062.72;;;22.23;56.15
66196;BME280;53000;45.182;5.736;2023-09-30T07:13:11;100059.31;;;22.28;56.17
66196;BME280;53000;45.182;5.736;2023-09-30T07:15:36;100062.00;;;22.35;56.07
66196;BME280;53000;45.182;5.736;2023-09-30T07:18:02;100060.22;;;22.40;56.45
66196;BME280;53000;45.182;5.736;2023-09-30T07:20:27;100066.13;;;22.44;56.28
66196;BME280;53000;45.182;5.736;2023-09-30T07:22:54;100066.91;;;22.51;55.97
66196;BME280;53000;45.182;5.736;2023-09-30T07:25:19;100068.97;;;22.56;56.12
66196;BME280;53000;45.182;5.736;2023-09-30T07:27:45;100072.13;;;22.59;56.10
66196;BME280;53000;45.182;5.736;2023-09-30T07:30:12;100070.59;;;22.63;55.58
66196;BME280;53000;45.182;5.736;2023-09-30T07:32:41;100075.06;;;22.64;55.48
66196;BME280;53000;45.182;5.736;2023-09-30T07:35:07;100075.06;;;22.64;55.16
66196;BME280;53000;45.182;5.736;2023-09-30T07:37:33;100074.97;;;22.71;54.78
66196;BME280;53000;45.182;5.736;2023-09-30T07:39:58;100074.28;;;22.76;54.65
66196;BME280;53000;45.182;5.736;2023-09-30T07:42:24;100070.00;;;22.80;54.52
66196;BME280;53000;45.182;5.736;2023-09-30T07:44:50;100071.44;;;22.82;55.02
66196;BME280;53000;45.182;5.736;2023-09-30T07:47:15;100077.41;;;22.79;54.95
66196;BME280;53000;45.182;5.736;2023-09-30T07:49:40;100082.56;;;22.76;54.76
66196;BME280;53000;45.182;5.736;2023-09-30T07:52:06;100077.88;;;22.76;55.54
66196;BME280;53000;45.182;5.736;2023-09-30T07:54:32;100075.13;;;22.76;54.88
66196;BME280;53000;45.182;5.736;2023-09-30T07:56:57;100076.56;;;22.79;55.00
66196;BME280;53000;45.182;5.736;2023-09-30T07:59:24;100083.94;;;22.85;54.66
66196;BME280;53000;45.182;5.736;2023-09-30T08:01:49;100074.25;;;22.94;54.81
66196;BME280;53000;45.182;5.736;2023-09-30T08:04:14;100072.66;;;23.05;54.38
66196;BME280;53000;45.182;5.736;2023-09-30T08:06:40;100074.06;;;23.14;54.73
66196;BME280;53000;45.182;5.736;2023-09-30T08:09:05;100076.50;;;23.22;54.15
66196;BME280;53000;45.182;5.736;2023-09-30T08:11:36;100080.84;;;23.30;54.29
66196;BME280;53000;45.182;5.736;2023-09-30T08:14:03;100084.59;;;23.36;54.64
66196;BME280;53000;45.182;5.736;2023-09-30T08:16:34;100075.00;;;23.38;54.46
66196;BME280;53000;45.182;5.736;2023-09-30T08:19:00;100076.22;;;23.42;54.34
66196;BME280;53000;45.182;5.736;2023-09-30T08:21:25;100079.97;;;23.48;53.95
66196;BME280;53000;45.182;5.736;2023-09-30T08:23:50;100077.94;;;23.55;53.86
66196;BME280;53000;45.182;5.736;2023-09-30T08:26:17;100074.25;;;23.61;53.44
66196;BME280;53000;45.182;5.736;2023-09-30T08:28:42;100081.09;;;23.71;53.71
66196;BME280;53000;45.182;5.736;2023-09-30T08:31:08;100072.28;;;23.80;53.29
66196;BME280;53000;45.182;5.736;2023-09-30T08:33:34;100074.44;;;23.90;53.53
66196;BME280;53000;45.182;5.736;2023-09-30T08:36:04;100066.53;;;23.94;53.21
66196;BME280;53000;45.182;5.736;2023-09-30T08:38:36;100074.72;;;24.00;52.95
66196;BME280;53000;45.182;5.736;2023-09-30T08:41:02;100062.94;;;24.05;52.91
66196;BME280;53000;45.182;5.736;2023-09-30T08:43:27;100060.66;;;24.14;52.59
66196;BME280;53000;45.182;5.736;2023-09-30T08:45:56;100055.59;;;24.22;52.30
66196;BME280;53000;45.182;5.736;2023-09-30T08:48:23;100070.50;;;24.33;52.46
66196;BME280;53000;45.182;5.736;2023-09-30T08:50:48;100070.25;;;24.46;52.40
66196;BME280;53000;45.182;5.736;2023-09-30T08:53:16;100074.25;;;24.62;51.57
66196;BME280;53000;45.182;5.736;2023-09-30T08:55:43;100071.22;;;24.76;51.36
66196;BME280;53000;45.182;5.736;2023-09-30T08:58:10;100073.38;;;24.85;51.00
66196;BME280;53000;45.182;5.736;2023-09-30T09:00:38;100077.22;;;24.96;51.08
66196;BME280;53000;45.182;5.736;2023-09-30T09:03:04;100077.41;;;25.06;50.74
66196;BME280;53000;45.182;5.736;2023-09-30T09:05:30;100072.34;;;25.15;49.90
66196;BME280;53000;45.182;5.736;2023-09-30T09:07:56;100074.34;;;25.32;50.11
66196;BME280;53000;45.182;5.736;2023-09-30T09:10:22;100075.94;;;25.56;49.39
66196;BME280;53000;45.182;5.736;2023-09-30T09:12:55;100071.69;;;25.82;49.56
66196;BME280;53000;45.182;5.736;2023-09-30T09:15:24;100060.53;;;26.11;48.60
66196;BME280;53000;45.182;5.736;2023-09-30T09:17:50;100068.34;;;26.31;48.20
66196;BME280;53000;45.182;5.736;2023-09-30T09:20:19;100069.84;;;26.39;46.48
66196;BME280;53000;45.182;5.736;2023-09-30T09:22:49;100068.06;;;26.49;47.60
66196;BME280;53000;45.182;5.736;2023-09-30T09:25:19;100068.97;;;26.55;46.74
66196;BME280;53000;45.182;5.736;2023-09-30T09:27:48;100073.78;;;26.60;46.65
66196;BME280;53000;45.182;5.736;2023-09-30T09:30:24;100069.22;;;26.53;47.03
66196;BME280;53000;45.182;5.736;2023-09-30T09:35:24;100074.31;;;26.57;46.60
66196;BME280;53000;45.182;5.736;2023-09-30T09:38:07;100069.47;;;26.69;46.49
66196;BME280;53000;45.182;5.736;2023-09-30T09:40:34;100061.41;;;26.89;45.98
66196;BME280;53000;45.182;5.736;2023-09-30T09:43:01;100067.03;;;27.17;45.93
66196;BME280;53000;45.182;5.736;2023-09-30T09:45:32;100071.00;;;27.48;45.69
66196;BME280;53000;45.182;5.736;2023-09-30T09:47:58;100060.38;;;27.72;44.48
66196;BME280;53000;45.182;5.736;2023-09-30T09:50:24;100061.16;;;27.89;44.98
66196;BME280;53000;45.182;5.736;2023-09-30T09:52:51;100058.78;;;28.08;44.77
66196;BME280;53000;45.182;5.736;2023-09-30T09:55:22;100054.97;;;28.52;42.80
66196;BME280;53000;45.182;5.736;2023-09-30T09:57:49;100055.16;;;28.98;43.02
66196;BME280;53000;45.182;5.736;2023-09-30T10:00:20;100058.06;;;29.24;43.38
66196;BME280;53000;45.182;5.736;2023-09-30T10:02:46;100048.38;;;29.52;41.98
66196;BME280;53000;45.182;5.736;2023-09-30T10:05:12;100050.69;;;29.91;42.29
66196;BME280;53000;45.182;5.736;2023-09-30T10:07:56;100042.25;;;30.57;39.21
66196;BME280;53000;45.182;5.736;2023-09-30T10:10:23;100048.75;;;31.18;37.85
66196;BME280;53000;45.182;5.736;2023-09-30T10:12:50;100044.72;;;31.79;38.76
66196;BME280;53000;45.182;5.736;2023-09-30T10:18:00;100035.09;;;32.54;37.15
66196;BME280;53000;45.182;5.736;2023-09-30T10:20:33;100030.47;;;32.68;36.25
66196;BME280;53000;45.182;5.736;2023-09-30T10:23:17;100035.16;;;32.73;34.50
66196;BME280;53000;45.182;5.736;2023-09-30T10:25:43;100042.03;;;32.86;34.83
66196;BME280;53000;45.182;5.736;2023-09-30T10:28:40;100041.72;;;33.11;35.36
66196;BME280;53000;45.182;5.736;2023-09-30T10:36:36;100033.56;;;34.51;29.96
66196;BME280;53000;45.182;5.736;2023-09-30T10:39:04;100034.09;;;34.53;32.43
66196;BME280;53000;45.182;5.736;2023-09-30T10:46:47;100028.47;;;34.39;30.33
66196;BME280;53000;45.182;5.736;2023-09-30T10:51:50;100021.69;;;34.27;30.98
66196;BME280;53000;45.182;5.736;2023-09-30T10:54:22;100017.13;;;34.45;31.26
66196;BME280;53000;45.182;5.736;2023-09-30T10:56:48;100014.22;;;34.50;30.90
66196;BME280;53000;45.182;5.736;2023-09-30T10:59:22;100008.47;;;34.55;30.69
66196;BME280;53000;45.182;5.736;2023-09-30T11:01:49;100006.09;;;34.62;29.83
66196;BME280;53000;45.182;5.736;2023-09-30T11:04:14;100009.44;;;34.64;29.09
66196;BME280;53000;45.182;5.736;2023-09-30T11:06:41;100002.25;;;34.58;30.63
66196;BME280;53000;45.182;5.736;2023-09-30T11:09:07;100001.97;;;34.73;30.78
66196;BME280;53000;45.182;5.736;2023-09-30T11:11:40;100001.19;;;34.95;30.37
66196;BME280;53000;45.182;5.736;2023-09-30T11:14:23;99995.34;;;35.19;29.41
66196;BME280;53000;45.182;5.736;2023-09-30T11:16:50;99990.13;;;35.27;28.89
66196;BME280;53000;45.182;5.736;2023-09-30T11:19:16;99992.69;;;35.37;28.33
66196;BME280;53000;45.182;5.736;2023-09-30T11:21:42;99989.63;;;35.47;29.51
66196;BME280;53000;45.182;5.736;2023-09-30T11:24:11;99986.56;;;35.57;30.05
66196;BME280;53000;45.182;5.736;2023-09-30T11:26:37;99986.66;;;35.66;28.12
66196;BME280;53000;45.182;5.736;2023-09-30T11:31:40;99983.84;;;35.66;28.80
66196;BME280;53000;45.182;5.736;2023-09-30T11:34:07;99988.66;;;35.66;28.36
66196;BME280;53000;45.182;5.736;2023-09-30T11:36:37;99982.00;;;35.48;26.40
66196;BME280;53000;45.182;5.736;2023-09-30T11:39:03;99974.50;;;35.43;28.12
66196;BME280;53000;45.182;5.736;2023-09-30T11:41:37;99974.34;;;35.39;26.60
66196;BME280;53000;45.182;5.736;2023-09-30T11:44:12;99976.31;;;35.39;25.93
66196;BME280;53000;45.182;5.736;2023-09-30T11:46:53;99971.59;;;35.48;26.80
66196;BME280;53000;45.182;5.736;2023-09-30T11:49:31;99964.75;;;35.63;27.40
66196;BME280;53000;45.182;5.736;2023-09-30T11:51:58;99949.47;;;35.78;26.79
66196;BME280;53000;45.182;5.736;2023-09-30T11:54:34;99954.59;;;35.76;26.38
66196;BME280;53000;45.182;5.736;2023-09-30T11:57:02;99959.38;;;35.75;25.39
66196;BME280;53000;45.182;5.736;2023-09-30T11:59:29;99959.19;;;35.72;25.78
66196;BME280;53000;45.182;5.736;2023-09-30T12:01:55;99949.38;;;35.69;25.29
66196;BME280;53000;45.182;5.736;2023-09-30T12:04:20;99948.72;;;35.63;26.08
66196;BME280;53000;45.182;5.736;2023-09-30T12:06:47;99947.59;;;35.51;24.43
66196;BME280;53000;45.182;5.736;2023-09-30T12:09:16;99941.31;;;35.31;25.27
66196;BME280;53000;45.182;5.736;2023-09-30T12:11:42;99946.34;;;35.07;26.64
66196;BME280;53000;45.182;5.736;2023-09-30T12:14:12;99935.59;;;34.86;24.84
66196;BME280;53000;45.182;5.736;2023-09-30T12:16:38;99933.22;;;34.66;25.20
66196;BME280;53000;45.182;5.736;2023-09-30T12:19:03;99927.47;;;34.57;26.56
66196;BME280;53000;45.182;5.736;2023-09-30T12:21:30;99937.25;;;34.59;25.39
66196;BME280;53000;45.182;5.736;2023-09-30T12:23:57;99932.88;;;34.53;26.67
66196;BME280;53000;45.182;5.736;2023-09-30T12:26:22;99933.72;;;34.40;25.71
66196;BME280;53000;45.182;5.736;2023-09-30T12:28:47;99930.72;;;34.22;25.46
66196;BME280;53000;45.182;5.736;2023-09-30T12:31:13;99921.53;;;34.03;25.34
66196;BME280;53000;45.182;5.736;2023-09-30T12:33:39;99921.19;;;33.91;25.63
66196;BME280;53000;45.182;5.736;2023-09-30T12:36:04;99923.97;;;33.77;26.37
66196;BME280;53000;45.182;5.736;2023-09-30T12:38:29;99926.34;;;33.70;26.36
66196;BME280;53000;45.182;5.736;2023-09-30T12:40:55;99928.41;;;33.64;26.13
66196;BME280;53000;45.182;5.736;2023-09-30T12:43:21;99924.56;;;33.60;26.87
66196;BME280;53000;45.182;5.736;2023-09-30T12:45:47;99926.81;;;33.58;26.49
66196;BME280;53000;45.182;5.736;2023-09-30T12:48:13;99920.38;;;33.57;26.89
66196;BME280;53000;45.182;5.736;2023-09-30T12:50:39;99928.03;;;33.52;26.64
66196;BME280;53000;45.182;5.736;2023-09-30T12:53:04;99915.53;;;33.44;26.92
66196;BME280;53000;45.182;5.736;2023-09-30T12:55:30;99907.28;;;33.34;27.15
66196;BME280;53000;45.182;5.736;2023-09-30T12:57:55;99920.84;;;33.27;27.38
66196;BME280;53000;45.182;5.736;2023-09-30T13:00:20;99928.59;;;33.16;26.93
66196;BME280;53000;45.182;5.736;2023-09-30T13:02:47;99922.84;;;33.07;27.86
66196;BME280;53000;45.182;5.736;2023-09-30T13:05:13;99912.50;;;33.03;27.46
66196;BME280;53000;45.182;5.736;2023-09-30T13:07:39;99916.47;;;33.02;27.48
66196;BME280;53000;45.182;5.736;2023-09-30T13:10:04;99913.50;;;32.93;27.40
66196;BME280;53000;45.182;5.736;2023-09-30T13:12:30;99907.13;;;32.87;27.79
66196;BME280;53000;45.182;5.736;2023-09-30T13:14:58;99906.59;;;32.85;28.33